Ranchita, California
Current Conditions -  °F | °C
As of 9:53 PM on Friday 19 Dec 2014 (Local Time) from KRNM Reporting Station
Haze Haze  
Wind Chill: 47°   Ceiling: 700
Heat Index: 47°   Visibility: 3mi
Dew Point: 46°   Wind: 0mph
Humidity: 97%   Direction: NA
Pressure: 30.18"   Gusts: NA
Location:  33.21°N, 116.52°W
Report Text: KRNM 200553Z 00000KT 3SM BR OVC007 08/08 A3018 RMK AO2 CIG 004V007 SLP218 T00830078 10133 20067 53003
Loading
Personal Weather Stations






























Interactive Weather Map New forecast layout! Learn more

10-Day Weather Forecast

Advertisements
Track Severe Weather on mobile